Time;durP1;ratioP1;P1;durP2;ratioP2;P2;SDS_P1;SDS_P2;PMS_P1;PMS_P2;Temp;Humidity;BMP_temperature;BMP_pressure;BME280_temperature;BME280_humidity;BME280_pressure;Samples;Min_cycle;Max_cycle;Signal;HPM_P1;HPM_P2
2022/11/15 00:02:13;;;;;;;12.60;8.57;;;10.90;96.70;;;;;;5102642;27;20527;-72
2022/11/15 00:04:59;;;;;;;10.15;8.68;;;10.90;96.70;;;;;;5099447;27;20413;-73
2022/11/15 00:07:46;;;;;;;9.40;8.23;;;10.70;96.70;;;;;;5090978;28;20078;-72
2022/11/15 00:10:42;;;;;;;12.32;8.73;;;10.70;96.70;;;;;;5092125;27;20061;-72
2022/11/15 00:13:29;;;;;;;12.88;8.90;;;10.70;96.70;;;;;;5110668;27;20047;-72
2022/11/15 00:16:16;;;;;;;11.15;7.93;;;10.70;96.70;;;;;;5111264;27;20118;-72
2022/11/15 00:19:02;;;;;;;10.87;8.33;;;10.60;96.70;;;;;;5112691;27;20120;-72
2022/11/15 00:21:49;;;;;;;10.73;8.50;;;10.70;96.70;;;;;;5104473;27;20050;-72
2022/11/15 00:24:35;;;;;;;10.05;8.30;;;10.80;96.70;;;;;;5098705;27;20412;-72
2022/11/15 00:27:23;;;;;;;12.40;8.63;;;10.70;96.70;;;;;;5115038;27;20050;-72
2022/11/15 00:30:11;;;;;;;10.60;7.95;;;10.60;96.70;;;;;;5105333;27;20058;-72
2022/11/15 00:33:00;;;;;;;10.48;8.55;;;10.50;96.70;;;;;;5105836;27;20086;-72
2022/11/15 00:35:47;;;;;;;10.35;8.50;;;10.60;96.70;;;;;;5106212;27;20050;-72
2022/11/15 00:38:35;;;;;;;10.17;8.67;;;10.60;96.70;;;;;;5112374;27;20067;-71
2022/11/15 00:41:21;;;;;;;11.05;8.13;;;10.70;96.70;;;;;;5115593;27;21036;-72
2022/11/15 00:44:09;;;;;;;10.63;8.48;;;10.80;96.70;;;;;;5104725;27;20506;-72
2022/11/15 00:46:55;;;;;;;12.98;8.90;;;10.80;96.70;;;;;;5092731;27;20123;-72
2022/11/15 00:49:42;;;;;;;12.55;9.13;;;10.70;96.70;;;;;;5092555;27;20058;-72
2022/11/15 00:52:28;;;;;;;11.32;8.18;;;10.70;96.70;;;;;;5113128;27;20104;-72
2022/11/15 00:55:16;;;;;;;10.90;8.95;;;10.70;96.70;;;;;;5106955;27;20065;-72
2022/11/15 00:58:02;;;;;;;;;;;10.70;96.70;;;;;;5104170;27;20634;-72
2022/11/15 01:00:50;;;;;;;12.43;8.70;;;10.70;96.70;;;;;;5118980;27;20003;-72
2022/11/15 01:03:38;;;;;;;13.35;9.35;;;10.70;96.70;;;;;;5106656;27;20064;-72
2022/11/15 01:06:24;;;;;;;11.65;9.20;;;10.50;96.70;;;;;;5112332;27;20050;-72
2022/11/15 01:09:11;;;;;;;11.27;9.18;;;10.60;96.70;;;;;;5105877;27;20054;-72
2022/11/15 01:11:57;;;;;;;12.48;9.27;;;10.60;96.70;;;;;;5110580;27;20100;-73
2022/11/15 01:14:43;;;;;;;11.37;7.97;;;10.60;96.70;;;;;;5092364;28;20097;-72
2022/11/15 01:17:32;;;;;;;10.55;8.40;;;10.50;96.70;;;;;;5089327;27;20545;-72
2022/11/15 01:20:18;;;;;;;10.93;8.65;;;10.60;96.70;;;;;;5120212;27;20050;-72
2022/11/15 01:23:05;;;;;;;12.10;8.65;;;10.50;96.70;;;;;;5104278;27;20047;-71
2022/11/15 01:25:51;;;;;;;11.10;8.27;;;10.40;96.70;;;;;;5108981;27;20054;-73
2022/11/15 01:28:40;;;;;;;13.25;8.75;;;10.40;96.70;;;;;;5106173;27;20489;-72
2022/11/15 01:31:26;;;;;;;11.68;8.52;;;10.40;96.70;;;;;;5116777;27;20108;-73
2022/11/15 01:34:14;;;;;;;10.05;7.45;;;10.40;96.70;;;;;;5111236;27;20404;-73
2022/11/15 01:37:18;;;;;;;10.55;8.13;;;10.40;96.70;;;;;;5090105;27;20069;-73
2022/11/15 01:40:05;;;;;;;12.23;8.77;;;10.30;96.70;;;;;;5120827;27;20679;-73
2022/11/15 01:42:51;;;;;;;11.93;9.27;;;10.30;96.70;;;;;;5099442;27;20596;-73
2022/11/15 01:45:38;;;;;;;12.00;8.90;;;10.30;96.70;;;;;;5113257;27;20042;-73
2022/11/15 01:48:30;;;;;;;10.15;8.10;;;10.20;96.70;;;;;;5102087;27;20361;-73
2022/11/15 01:51:23;;;;;;;13.40;8.77;;;10.20;96.70;;;;;;5108474;27;20109;-73
2022/11/15 01:54:14;;;;;;;12.10;8.70;;;10.20;96.70;;;;;;5087856;28;20055;-73
2022/11/15 01:57:06;;;;;;;13.07;7.90;;;10.10;96.70;;;;;;5108415;27;20066;-73
2022/11/15 01:59:53;;;;;;;12.07;8.02;;;10.20;96.70;;;;;;5117187;27;20067;-73
2022/11/15 02:02:40;;;;;;;11.43;8.35;;;10.20;96.70;;;;;;5104751;28;20087;-73
2022/11/15 02:05:27;;;;;;;10.50;8.20;;;10.30;96.70;;;;;;5110194;28;20054;-73
2022/11/15 02:08:19;;;;;;;10.15;7.78;;;10.30;96.70;;;;;;5111020;27;20091;-73
2022/11/15 02:11:08;;;;;;;10.43;7.80;;;10.20;96.70;;;;;;5102804;28;20074;-73
2022/11/15 02:13:55;;;;;;;10.63;8.57;;;10.10;96.70;;;;;;5118042;28;20076;-73
2022/11/15 02:16:53;;;;;;;9.18;7.85;;;10.10;96.70;;;;;;5111413;28;20045;-73
2022/11/15 02:20:21;;;;;;;10.10;7.20;;;10.10;96.70;;;;;;5095998;28;20626;-73
2022/11/15 02:23:56;;;;;;;8.40;6.83;;;10.00;96.70;;;;;;5068972;27;20160;-73
2022/11/15 02:27:14;;;;;;;9.13;8.07;;;10.10;96.70;;;;;;5018183;28;20068;-74
2022/11/15 02:30:21;;;;;;;9.73;8.13;;;10.10;96.70;;;;;;5075552;28;20137;-73
2022/11/15 02:33:21;;;;;;;8.73;7.50;;;10.20;96.70;;;;;;5122231;27;20058;-73
2022/11/15 02:36:14;;;;;;;10.88;7.53;;;10.10;96.70;;;;;;5112892;27;20047;-73
2022/11/15 02:39:07;;;;;;;8.68;7.30;;;10.00;96.70;;;;;;5115476;27;20055;-73
2022/11/15 02:42:00;;;;;;;8.02;6.78;;;10.00;96.70;;;;;;5112291;27;20480;-73
2022/11/15 02:44:48;;;;;;;11.95;7.57;;;10.00;96.70;;;;;;5107588;27;20093;-73
2022/11/15 02:47:41;;;;;;;9.50;6.80;;;10.00;96.70;;;;;;5119376;27;20640;-73
2022/11/15 02:50:31;;;;;;;8.75;7.25;;;10.10;96.70;;;;;;5104907;27;20511;-73
2022/11/15 02:53:18;;;;;;;11.00;6.88;;;10.10;96.70;;;;;;5114365;27;20079;-73
2022/11/15 02:56:05;;;;;;;11.90;7.78;;;9.90;96.70;;;;;;5116067;27;20511;-74
2022/11/15 02:59:17;;;;;;;9.55;7.55;;;9.90;96.70;;;;;;5109965;27;20054;-73
2022/11/15 03:02:18;;;;;;;10.98;7.53;;;9.90;96.70;;;;;;5110616;27;20050;-73
2022/11/15 03:05:15;;;;;;;10.05;7.90;;;9.90;96.70;;;;;;5093309;27;20496;-73
2022/11/15 03:08:10;;;;;;;11.23;8.10;;;10.00;96.70;;;;;;5097110;27;20105;-73
2022/11/15 03:11:07;;;;;;;12.63;8.27;;;9.90;96.70;;;;;;5110306;27;21107;-73
2022/11/15 03:13:58;;;;;;;11.38;7.82;;;9.80;96.70;;;;;;5113094;27;20135;-73
2022/11/15 03:16:51;;;;;;;10.10;7.32;;;9.90;96.70;;;;;;5106590;27;20531;-73
2022/11/15 03:19:49;;;;;;;10.85;8.43;;;9.90;96.70;;;;;;5098967;27;20101;-73
2022/11/15 03:22:43;;;;;;;9.23;7.78;;;9.90;96.70;;;;;;5105756;27;20059;-71
2022/11/15 03:25:33;;;;;;;11.32;8.18;;;9.90;96.70;;;;;;5115532;27;20066;-71
2022/11/15 03:28:25;;;;;;;8.65;7.32;;;9.90;96.70;;;;;;5111697;27;20655;-70
2022/11/15 03:34:29;;;;;;;11.40;7.78;;;9.90;96.70;;;;;;5120840;27;20103;-71
2022/11/15 03:37:17;;;;;;;11.10;8.00;;;9.90;96.70;;;;;;5105605;27;20077;-70
2022/11/15 03:40:04;;;;;;;10.60;7.78;;;9.80;96.70;;;;;;5121680;27;20054;-71
2022/11/15 03:43:00;;;;;;;10.93;7.65;;;9.80;96.70;;;;;;5088996;28;20182;-71
2022/11/15 03:45:51;;;;;;;9.90;7.65;;;9.80;96.70;;;;;;5094725;28;20092;-70
2022/11/15 03:48:43;;;;;;;11.98;7.85;;;9.90;96.70;;;;;;5103806;27;20469;-71
2022/11/15 03:51:29;;;;;;;8.63;6.97;;;9.90;96.70;;;;;;5105053;27;20050;-71
2022/11/15 03:54:16;;;;;;;9.75;7.57;;;9.80;96.70;;;;;;5111822;27;20180;-71
2022/11/15 03:57:03;;;;;;;9.80;7.40;;;9.80;96.70;;;;;;5113167;27;20536;-71
2022/11/15 03:59:51;;;;;;;9.40;7.43;;;9.90;96.70;;;;;;5098501;27;20121;-70
2022/11/15 04:02:38;;;;;;;8.82;7.13;;;9.90;96.70;;;;;;5087811;28;20537;-70
2022/11/15 04:05:24;;;;;;;11.52;8.25;;;10.00;96.70;;;;;;5087930;27;20647;-71
2022/11/15 04:08:11;;;;;;;10.02;7.43;;;10.00;96.70;;;;;;5097747;27;20053;-71
2022/11/15 04:10:57;;;;;;;9.60;7.15;;;10.00;96.70;;;;;;5100989;27;20567;-71
2022/11/15 04:13:44;;;;;;;9.73;7.63;;;10.00;96.70;;;;;;5089208;28;20404;-70
2022/11/15 04:16:32;;;;;;;8.73;7.40;;;10.10;96.70;;;;;;5112106;27;20054;-70
2022/11/15 04:25:29;;;;;;;9.93;7.70;;;10.10;96.70;;;;;;5105942;27;20128;-70
2022/11/15 04:28:17;;;;;;;9.52;7.05;;;10.00;96.70;;;;;;5113185;27;20120;-70
2022/11/15 04:31:04;;;;;;;9.13;6.88;;;10.10;96.70;;;;;;5107566;27;20224;-71
2022/11/15 04:33:52;;;;;;;10.45;7.38;;;10.10;96.70;;;;;;5108811;27;20084;-72
2022/11/15 04:39:45;;;;;;;9.15;7.22;;;10.20;96.70;;;;;;5103714;27;20093;-72
2022/11/15 04:42:32;;;;;;;10.18;8.27;;;10.20;96.70;;;;;;5104605;27;20912;-72
2022/11/15 04:45:18;;;;;;;9.60;7.68;;;10.10;96.70;;;;;;5090961;27;20108;-72
2022/11/15 04:48:05;;;;;;;9.70;7.40;;;10.20;96.70;;;;;;5118942;27;20554;-71
2022/11/15 04:50:53;;;;;;;10.95;7.60;;;10.10;96.70;;;;;;5110140;27;20103;-72
2022/11/15 04:53:39;;;;;;;9.75;7.57;;;10.10;96.70;;;;;;5112286;27;20058;-72
2022/11/15 04:56:26;;;;;;;9.48;7.03;;;10.10;96.70;;;;;;5110174;27;20054;-71
2022/11/15 04:59:12;;;;;;;9.95;7.18;;;10.10;96.70;;;;;;5106174;27;20050;-72
2022/11/15 05:01:59;;;;;;;9.85;7.57;;;10.10;96.70;;;;;;5098538;27;20066;-73
2022/11/15 05:04:46;;;;;;;10.50;6.85;;;10.10;96.70;;;;;;5090589;28;20047;-73
2022/11/15 05:07:33;;;;;;;8.50;7.60;;;10.10;96.70;;;;;;5109549;27;20063;-74
2022/11/15 05:10:20;;;;;;;10.68;7.40;;;10.10;96.70;;;;;;5104476;27;20058;-73
2022/11/15 05:13:06;;;;;;;9.73;6.90;;;10.20;96.70;;;;;;5112404;27;20058;-73
2022/11/15 05:15:53;;;;;;;10.67;7.53;;;10.20;96.70;;;;;;5116648;27;20058;-73
2022/11/15 05:18:43;;;;;;;8.75;7.13;;;10.20;96.70;;;;;;5111355;27;20080;-73
2022/11/15 05:21:30;;;;;;;10.18;7.22;;;10.30;96.70;;;;;;5114869;27;20176;-73
2022/11/15 05:24:17;;;;;;;;;;;10.30;96.70;;;;;;5103846;27;20045;-73
2022/11/15 05:27:04;;;;;;;10.10;7.10;;;10.30;96.70;;;;;;5110484;27;19930;-73
2022/11/15 05:29:50;;;;;;;8.70;7.05;;;10.30;96.70;;;;;;5092726;27;20185;-73
2022/11/15 05:32:37;;;;;;;9.32;7.57;;;10.40;96.70;;;;;;5096797;27;20169;-72
2022/11/15 05:35:31;;;;;;;7.55;6.53;;;10.40;96.70;;;;;;5110005;27;20054;-73
2022/11/15 05:38:17;;;;;;;9.20;7.00;;;10.40;96.70;;;;;;5112783;27;20144;-72
2022/11/15 05:41:06;;;;;;;10.30;7.35;;;10.40;96.70;;;;;;5100533;28;20078;-73
2022/11/15 05:43:54;;;;;;;9.10;7.18;;;10.50;96.70;;;;;;5060473;28;20421;-73
2022/11/15 05:46:42;;;;;;;7.30;5.93;;;10.50;96.70;;;;;;5061807;28;20060;-73
2022/11/15 05:49:34;;;;;;;8.88;7.22;;;10.50;96.70;;;;;;5059776;28;20799;-72
2022/11/15 05:52:22;;;;;;;7.60;6.80;;;10.50;96.70;;;;;;5060960;28;20067;-73
2022/11/15 05:55:09;;;;;;;8.50;6.35;;;10.50;96.70;;;;;;5060052;28;20116;-73
2022/11/15 05:57:57;;;;;;;9.75;6.65;;;10.60;96.70;;;;;;5064788;28;20056;-71
2022/11/15 06:00:44;;;;;;;7.97;6.35;;;10.60;96.70;;;;;;5059383;28;20103;-71
2022/11/15 06:03:31;;;;;;;9.65;6.45;;;10.60;96.70;;;;;;5057057;28;20078;-71
2022/11/15 06:06:18;;;;;;;8.18;6.90;;;10.60;96.70;;;;;;5059822;28;20055;-72
2022/11/15 06:09:04;;;;;;;7.65;6.30;;;10.60;96.70;;;;;;5057304;28;20461;-72
2022/11/15 06:11:50;;;;;;;8.67;6.73;;;10.60;96.70;;;;;;5061963;28;20398;-72
2022/11/15 06:14:38;;;;;;;12.68;6.90;;;10.60;96.70;;;;;;5061053;28;20214;-72
2022/11/15 06:17:25;;;;;;;12.43;7.00;;;10.60;96.70;;;;;;5059597;28;20059;-72
2022/11/15 06:20:11;;;;;;;10.13;7.10;;;10.60;96.70;;;;;;5061339;28;20058;-72
2022/11/15 06:22:59;;;;;;;9.05;7.07;;;10.60;96.70;;;;;;5057120;28;20056;-72
2022/11/15 06:25:45;;;;;;;8.68;6.55;;;10.60;96.70;;;;;;5061081;28;20091;-71
2022/11/15 06:28:32;;;;;;;7.87;6.80;;;10.60;96.70;;;;;;5055259;28;20505;-72
2022/11/15 06:31:20;;;;;;;8.25;6.95;;;10.60;96.70;;;;;;5061062;28;20285;-71
2022/11/15 06:34:06;;;;;;;8.00;6.80;;;10.60;96.70;;;;;;5055983;28;20102;-72
2022/11/15 06:36:53;;;;;;;9.13;6.93;;;10.70;96.70;;;;;;5060514;28;20055;-72
2022/11/15 06:39:39;;;;;;;10.27;6.37;;;10.70;96.70;;;;;;5054843;28;20055;-72
2022/11/15 06:42:26;;;;;;;7.68;6.35;;;10.70;96.70;;;;;;5085030;28;20904;-71
2022/11/15 06:45:12;;;;;;;8.70;6.28;;;10.70;96.70;;;;;;5104576;28;20127;-72
2022/11/15 06:48:00;;;;;;;7.82;6.35;;;10.70;96.70;;;;;;5117325;28;20701;-72
2022/11/15 06:50:51;;;;;;;7.68;6.30;;;10.80;96.70;;;;;;5104192;28;20054;-72
2022/11/15 06:53:37;;;;;;;7.38;6.03;;;10.80;96.70;;;;;;5093477;28;20058;-73
2022/11/15 06:56:24;;;;;;;14.23;6.68;;;10.80;96.70;;;;;;5111157;28;20054;-72
2022/11/15 06:59:10;;;;;;;8.23;6.50;;;10.80;96.70;;;;;;5091765;28;20507;-72
2022/11/15 07:01:57;;;;;;;9.70;6.47;;;10.80;96.70;;;;;;5097838;28;20047;-72
2022/11/15 07:04:45;;;;;;;8.70;6.18;;;10.90;96.70;;;;;;5106359;28;20125;-72
2022/11/15 07:07:31;;;;;;;6.72;5.85;;;10.90;96.70;;;;;;5098749;28;20054;-72
2022/11/15 07:10:18;;;;;;;7.93;6.28;;;10.90;96.70;;;;;;5104419;28;20148;-72
2022/11/15 07:13:04;;;;;;;7.55;6.00;;;10.90;96.70;;;;;;5095267;28;20467;-72
2022/11/15 07:15:51;;;;;;;8.88;6.13;;;10.90;96.70;;;;;;5113068;28;20072;-72
2022/11/15 07:18:39;;;;;;;7.68;6.53;;;10.90;96.70;;;;;;5094050;27;20076;-71
2022/11/15 07:21:26;;;;;;;8.25;6.50;;;10.90;96.70;;;;;;5083766;27;20054;-74
2022/11/15 07:24:13;;;;;;;8.25;6.28;;;10.90;96.70;;;;;;5107546;27;20542;-72
2022/11/15 07:26:59;;;;;;;9.02;7.07;;;10.90;96.70;;;;;;5111451;27;20099;-72
2022/11/15 07:29:46;;;;;;;7.40;6.55;;;10.90;96.70;;;;;;5089226;27;20054;-72
2022/11/15 07:32:32;;;;;;;7.80;5.93;;;11.00;96.70;;;;;;5095820;27;20054;-72
2022/11/15 07:35:18;;;;;;;9.88;6.72;;;11.00;96.70;;;;;;5116336;27;20370;-72
2022/11/15 07:38:06;;;;;;;8.07;6.70;;;11.10;96.70;;;;;;5095839;27;20049;-72
2022/11/15 07:40:57;;;;;;;8.18;7.07;;;11.10;96.70;;;;;;5097466;27;20416;-72
2022/11/15 07:43:43;;;;;;;14.60;7.20;;;11.10;96.70;;;;;;5106637;28;20236;-72
2022/11/15 07:46:30;;;;;;;9.60;7.35;;;11.20;96.70;;;;;;5109416;27;20065;-72
2022/11/15 07:49:17;;;;;;;8.48;6.78;;;11.20;96.70;;;;;;5097638;27;20062;-72
2022/11/15 07:52:03;;;;;;;10.07;7.37;;;11.20;96.70;;;;;;5098581;27;20054;-72
2022/11/15 07:54:51;;;;;;;12.32;7.85;;;11.20;96.70;;;;;;5114878;27;20455;-72
2022/11/15 07:57:38;;;;;;;9.63;7.35;;;11.30;96.70;;;;;;5097063;27;20446;-72
2022/11/15 08:00:24;;;;;;;9.75;7.45;;;11.30;96.70;;;;;;5114155;27;20059;-72
2022/11/15 08:03:12;;;;;;;8.57;7.07;;;11.40;96.70;;;;;;5105521;27;20055;-72
2022/11/15 08:05:59;;;;;;;11.98;7.93;;;11.40;96.70;;;;;;5093202;27;20059;-72
2022/11/15 08:08:47;;;;;;;9.95;7.53;;;11.50;96.70;;;;;;5113270;27;20187;-72
2022/11/15 08:11:35;;;;;;;7.63;6.72;;;11.50;96.70;;;;;;5103027;27;20161;-72
2022/11/15 08:14:21;;;;;;;10.13;7.15;;;11.50;96.70;;;;;;5105337;27;20050;-71
2022/11/15 08:17:07;;;;;;;9.48;8.05;;;11.60;96.70;;;;;;5097586;27;20058;-72
2022/11/15 08:19:54;;;;;;;8.02;6.72;;;11.60;96.70;;;;;;5114672;27;20051;-72
2022/11/15 08:22:41;;;;;;;8.32;6.28;;;11.60;96.70;;;;;;5101108;27;20062;-73
2022/11/15 08:25:29;;;;;;;8.98;6.90;;;11.70;96.70;;;;;;5106000;27;20204;-73
2022/11/15 08:28:17;;;;;;;8.85;6.90;;;11.70;96.70;;;;;;5114977;27;20118;-72
2022/11/15 08:31:04;;;;;;;11.65;6.95;;;11.80;96.70;;;;;;5105222;27;20046;-72
2022/11/15 08:33:51;;;;;;;7.50;6.53;;;11.80;96.70;;;;;;5121505;27;20172;-72
2022/11/15 08:36:37;;;;;;;8.20;6.38;;;11.80;96.70;;;;;;5101758;28;20058;-72
2022/11/15 08:39:31;;;;;;;9.00;6.70;;;11.80;96.70;;;;;;5104547;27;20193;-73
2022/11/15 08:42:17;;;;;;;8.95;6.60;;;11.80;96.70;;;;;;5113272;27;20066;-73
2022/11/15 08:45:08;;;;;;;7.60;6.22;;;11.80;96.70;;;;;;5107816;27;20057;-72
2022/11/15 08:47:55;;;;;;;9.70;6.30;;;11.80;96.70;;;;;;5104286;27;20071;-73
2022/11/15 08:50:43;;;;;;;9.15;6.40;;;11.90;96.70;;;;;;5111173;27;20412;-72
2022/11/15 08:53:30;;;;;;;8.40;6.55;;;11.90;96.70;;;;;;5104041;27;20054;-73
2022/11/15 08:56:17;;;;;;;10.02;6.63;;;11.90;96.70;;;;;;5104245;27;20159;-73
2022/11/15 08:59:03;;;;;;;10.10;7.20;;;11.90;96.70;;;;;;5095335;28;20058;-73
2022/11/15 09:01:52;;;;;;;9.68;6.50;;;11.90;96.70;;;;;;5119796;27;20058;-74
2022/11/15 09:04:41;;;;;;;8.75;7.07;;;12.00;96.70;;;;;;5106699;27;20077;-72
2022/11/15 09:07:29;;;;;;;9.85;6.68;;;12.00;96.70;;;;;;5115201;27;20050;-73
2022/11/15 09:10:16;;;;;;;8.23;6.90;;;12.00;96.70;;;;;;5090382;27;20140;-73
2022/11/15 09:13:03;;;;;;;9.13;6.85;;;12.00;96.70;;;;;;5106918;27;20072;-73
2022/11/15 09:15:49;;;;;;;8.32;7.28;;;12.00;96.70;;;;;;5115223;27;20058;-72
2022/11/15 09:18:37;;;;;;;7.97;6.05;;;12.00;96.70;;;;;;5108040;27;20503;-72
2022/11/15 09:21:24;;;;;;;8.40;6.88;;;12.00;96.70;;;;;;5103879;27;20450;-72
2022/11/15 09:24:11;;;;;;;10.13;6.82;;;12.00;96.70;;;;;;5106890;27;20515;-73
2022/11/15 09:26:58;;;;;;;8.80;6.88;;;12.00;96.70;;;;;;5102183;27;20066;-73
2022/11/15 09:29:44;;;;;;;9.63;8.02;;;11.90;96.70;;;;;;5106936;27;20127;-72
2022/11/15 09:32:31;;;;;;;8.27;7.13;;;11.90;96.70;;;;;;5111722;27;20050;-72
2022/11/15 09:35:26;;;;;;;7.68;6.35;;;11.90;96.70;;;;;;5102378;27;20058;-73
2022/11/15 09:38:13;;;;;;;9.38;6.82;;;11.90;96.70;;;;;;5103150;28;20120;-72
2022/11/15 09:41:31;;;;;;;8.25;7.05;;;11.80;96.70;;;;;;5100449;27;20120;-73
2022/11/15 09:44:42;;;;;;;9.23;6.97;;;11.90;96.70;;;;;;5088087;27;20062;-73
2022/11/15 09:48:03;;;;;;;8.98;6.25;;;11.80;96.70;;;;;;5089682;27;20059;-73
2022/11/15 09:51:04;;;;;;;9.35;6.85;;;11.90;96.70;;;;;;5043655;28;20064;-73
2022/11/15 09:53:38;;;;;;;9.00;6.53;;;11.90;96.70;;;;;;5032634;28;20045;-72
2022/11/15 09:56:29;;;;;;;9.48;7.07;;;11.90;96.70;;;;;;5042449;28;20065;-71
2022/11/15 09:59:12;;;;;;;8.95;7.07;;;11.90;96.70;;;;;;5060413;28;20084;-72
2022/11/15 10:01:49;;;;;;;7.47;6.50;;;12.00;96.70;;;;;;5045997;28;20534;-72
2022/11/15 10:04:18;;;;;;;11.50;7.32;;;12.00;96.70;;;;;;5045643;28;20041;-72
2022/11/15 10:06:55;;;;;;;10.52;7.28;;;12.00;96.70;;;;;;5017806;28;20149;-72
2022/11/15 10:09:28;;;;;;;9.15;7.88;;;11.90;96.70;;;;;;5051242;28;20101;-72
2022/11/15 10:11:56;;;;;;;9.73;7.00;;;11.90;96.70;;;;;;5043669;28;20064;-72
2022/11/15 10:14:28;;;;;;;7.53;6.68;;;12.00;96.70;;;;;;5039254;28;20163;-73
2022/11/15 10:17:45;;;;;;;9.10;6.95;;;12.00;96.70;;;;;;5029368;28;20093;-72
2022/11/15 10:20:17;;;;;;;7.10;6.38;;;12.00;96.70;;;;;;5026666;28;20059;-72
2022/11/15 10:22:50;;;;;;;9.35;7.47;;;12.00;96.70;;;;;;5066650;28;20127;-72
2022/11/15 10:25:23;;;;;;;7.63;6.60;;;12.00;96.70;;;;;;5034486;28;20514;-74
2022/11/15 10:27:55;;;;;;;9.70;7.47;;;12.00;96.70;;;;;;5068826;27;20055;-73
2022/11/15 10:30:33;;;;;;;9.65;7.93;;;12.10;96.70;;;;;;5080587;28;20101;-73
2022/11/15 10:33:21;;;;;;;9.60;7.28;;;12.00;96.70;;;;;;5104227;28;20450;-73
2022/11/15 10:36:09;;;;;;;7.47;6.68;;;12.00;96.70;;;;;;5109235;28;20043;-72
2022/11/15 10:38:55;;;;;;;8.35;6.72;;;12.00;96.70;;;;;;5103711;27;20050;-72
2022/11/15 10:41:36;;;;;;;10.30;6.78;;;12.10;96.70;;;;;;5096921;28;20043;-72
2022/11/15 10:44:18;;;;;;;9.40;7.63;;;12.00;96.70;;;;;;5112276;27;20048;-72
2022/11/15 10:47:05;;;;;;;10.50;8.02;;;12.00;96.70;;;;;;5105518;28;20508;-73
2022/11/15 10:49:34;;;;;;;9.98;7.90;;;12.00;96.70;;;;;;5098619;27;20047;-73
2022/11/15 10:52:08;;;;;;;8.63;7.20;;;12.00;96.70;;;;;;5098563;27;20496;-72
2022/11/15 10:54:41;;;;;;;10.80;8.27;;;12.00;96.70;;;;;;5103336;27;20049;-72
2022/11/15 10:57:16;;;;;;;9.00;7.60;;;12.00;96.70;;;;;;5088387;28;20056;-72
2022/11/15 10:59:47;;;;;;;10.32;8.60;;;12.10;96.70;;;;;;5105995;27;20040;-72
2022/11/15 11:02:41;;;;;;;10.13;8.30;;;12.10;96.70;;;;;;5115572;27;20047;-72
2022/11/15 11:05:29;;;;;;;8.43;7.38;;;12.10;96.70;;;;;;5073093;28;20162;-72
2022/11/15 11:07:59;;;;;;;11.40;8.48;;;12.10;96.70;;;;;;5120022;27;20450;-71
2022/11/15 11:10:29;;;;;;;9.57;8.32;;;12.10;96.70;;;;;;5112742;27;20235;-73
2022/11/15 11:13:24;;;;;;;9.18;8.07;;;12.10;96.70;;;;;;5099163;27;20048;-72
2022/11/15 11:15:59;;;;;;;12.38;8.73;;;12.10;96.70;;;;;;5120659;27;20122;-72
2022/11/15 11:18:33;;;;;;;10.60;9.27;;;12.20;96.70;;;;;;5080114;27;21042;-72
2022/11/15 11:21:09;;;;;;;11.48;9.18;;;12.20;96.70;;;;;;5095459;28;20069;-73
2022/11/15 11:24:18;;;;;;;11.68;9.25;;;12.20;96.70;;;;;;5107554;27;20065;-73
2022/11/15 11:26:59;;;;;;;10.60;9.50;;;12.30;96.70;;;;;;5015049;28;20531;-73
2022/11/15 11:29:39;;;;;;;11.95;9.15;;;12.30;96.70;;;;;;4994267;28;20053;-73
2022/11/15 11:32:22;;;;;;;10.68;9.30;;;12.40;96.70;;;;;;5017356;28;20046;-73
2022/11/15 11:34:59;;;;;;;9.95;8.70;;;12.40;96.70;;;;;;4997207;28;20577;-73
2022/11/15 11:37:35;;;;;;;14.05;9.65;;;12.40;96.70;;;;;;5005630;28;20058;-73
2022/11/15 11:40:16;;;;;;;10.40;9.05;;;12.40;96.70;;;;;;5013254;28;20531;-73
2022/11/15 11:42:58;;;;;;;13.43;10.48;;;12.40;96.70;;;;;;4988225;28;20132;-73
2022/11/15 11:45:53;;;;;;;13.02;11.18;;;12.30;96.70;;;;;;5012207;28;20051;-72
2022/11/15 11:48:34;;;;;;;13.65;10.60;;;12.30;96.70;;;;;;4992322;28;20549;-73
2022/11/15 11:51:08;;;;;;;12.52;9.18;;;12.20;96.70;;;;;;4995537;28;20058;-72
2022/11/15 11:53:41;;;;;;;11.88;9.15;;;12.10;96.70;;;;;;4993628;28;20050;-72
2022/11/15 11:56:21;;;;;;;10.98;8.77;;;12.10;96.70;;;;;;5008112;28;20153;-73
2022/11/15 11:58:53;;;;;;;10.18;8.40;;;12.10;96.70;;;;;;5000940;28;20057;-73
2022/11/15 12:01:24;;;;;;;10.45;7.85;;;12.10;96.70;;;;;;5000482;27;20115;-72
2022/11/15 12:03:59;;;;;;;9.85;7.93;;;12.20;96.70;;;;;;5100346;28;20055;-72
2022/11/15 12:06:33;;;;;;;9.20;7.70;;;12.20;96.70;;;;;;5097655;27;20454;-72
2022/11/15 12:09:11;;;;;;;10.77;8.82;;;12.20;96.70;;;;;;5097598;27;20066;-72
2022/11/15 12:11:52;;;;;;;10.60;8.88;;;12.20;96.70;;;;;;5100252;27;20590;-72
2022/11/15 12:14:32;;;;;;;10.68;8.38;;;12.20;96.70;;;;;;5101244;27;20050;-72
2022/11/15 12:17:01;;;;;;;10.07;8.88;;;12.20;96.70;;;;;;5110574;27;20069;-73
2022/11/15 12:19:30;;;;;;;11.25;9.65;;;12.20;96.70;;;;;;5124198;27;20051;-73
2022/11/15 12:22:04;;;;;;;10.05;8.85;;;12.10;96.70;;;;;;5104992;27;20047;-72
2022/11/15 12:24:38;;;;;;;12.82;10.40;;;12.20;96.70;;;;;;5099192;27;20042;-74
2022/11/15 12:27:15;;;;;;;11.95;10.43;;;12.20;96.70;;;;;;5070698;28;20059;-72
2022/11/15 12:29:53;;;;;;;12.10;9.20;;;12.20;96.70;;;;;;5101928;27;20040;-72
2022/11/15 12:32:27;;;;;;;11.85;10.13;;;12.20;96.70;;;;;;5098470;28;20054;-72
2022/11/15 12:34:56;;;;;;;11.88;10.40;;;12.30;96.70;;;;;;5110400;27;20043;-72
2022/11/15 12:37:49;;;;;;;13.68;11.15;;;12.30;96.70;;;;;;5115199;27;20046;-72
2022/11/15 12:40:20;;;;;;;12.02;10.18;;;12.40;96.70;;;;;;5066183;28;20059;-71
2022/11/15 12:43:25;;;;;;;11.85;9.57;;;12.40;96.70;;;;;;5119448;27;20515;-72
2022/11/15 12:46:01;;;;;;;12.75;8.95;;;12.30;96.70;;;;;;5087911;28;20047;-72
2022/11/15 12:48:48;;;;;;;11.85;9.00;;;12.40;96.70;;;;;;5118489;27;20232;-72
2022/11/15 12:51:19;;;;;;;14.05;8.70;;;12.40;96.70;;;;;;5090640;27;20055;-72
2022/11/15 12:53:47;;;;;;;11.98;9.68;;;12.40;96.70;;;;;;5109957;27;20039;-73
2022/11/15 12:56:23;;;;;;;11.65;9.80;;;12.40;96.70;;;;;;5106039;27;20035;-72
2022/11/15 12:58:56;;;;;;;12.57;10.75;;;12.40;96.70;;;;;;5113156;27;20472;-72
2022/11/15 13:02:02;;;;;;;13.68;10.27;;;12.40;96.70;;;;;;5087405;27;20051;-72
2022/11/15 13:04:31;;;;;;;12.57;10.30;;;12.40;96.70;;;;;;5086559;27;20207;-72
2022/11/15 13:07:02;;;;;;;12.27;10.65;;;12.50;96.70;;;;;;5107119;27;20089;-72
2022/11/15 13:09:54;;;;;;;13.90;10.07;;;12.50;96.70;;;;;;5091481;27;20047;-73
2022/11/15 13:12:57;;;;;;;11.13;9.93;;;12.40;96.70;;;;;;5098319;27;20043;-72
2022/11/15 13:15:55;;;;;;;11.65;10.05;;;12.50;96.70;;;;;;5112554;27;20130;-72
2022/11/15 13:18:37;;;;;;;13.95;10.60;;;12.50;96.70;;;;;;5094445;27;20115;-72
2022/11/15 13:24:13;;;;;;;11.60;10.30;;;12.50;96.70;;;;;;5107351;27;20126;-73
2022/11/15 13:26:41;;;;;;;12.25;8.52;;;12.50;96.70;;;;;;5088115;27;20512;-73
2022/11/15 13:29:17;;;;;;;9.80;8.70;;;12.50;96.70;;;;;;5091888;27;20101;-72
2022/11/15 13:31:45;;;;;;;9.80;8.15;;;12.50;96.70;;;;;;5092291;28;20540;-73
2022/11/15 13:34:29;;;;;;;9.50;8.50;;;12.50;96.70;;;;;;5091751;27;20031;-73
2022/11/15 13:37:30;;;;;;;9.43;8.05;;;12.40;96.70;;;;;;5104648;27;20116;-73
2022/11/15 13:40:18;;;;;;;9.63;8.07;;;12.40;96.70;;;;;;5102417;27;20047;-72
2022/11/15 13:42:46;;;;;;;11.30;8.48;;;12.40;96.70;;;;;;5110432;27;20108;-72
2022/11/15 13:45:17;;;;;;;10.35;9.07;;;12.40;96.70;;;;;;5074135;28;20612;-72
2022/11/15 13:47:52;;;;;;;9.07;8.02;;;12.40;96.70;;;;;;5110359;27;20079;-71
2022/11/15 13:50:25;;;;;;;8.63;7.70;;;12.40;96.70;;;;;;5089844;27;20043;-72
2022/11/15 13:52:55;;;;;;;10.27;8.85;;;12.40;96.70;;;;;;5089397;28;20059;-72
2022/11/15 13:55:24;;;;;;;10.90;8.15;;;12.40;96.70;;;;;;5118411;27;20510;-72
2022/11/15 13:57:56;;;;;;;10.85;8.90;;;12.40;96.70;;;;;;5092461;27;20043;-72
2022/11/15 14:00:34;;;;;;;11.20;9.27;;;12.50;96.70;;;;;;5115186;27;20070;-72
2022/11/15 14:03:17;;;;;;;10.38;8.57;;;12.50;96.70;;;;;;5103983;27;20130;-72
2022/11/15 14:06:03;;;;;;;12.90;9.13;;;12.50;96.70;;;;;;5096975;28;20045;-72
2022/11/15 14:08:31;;;;;;;11.32;8.93;;;12.50;96.70;;;;;;5105325;28;20051;-72
2022/11/15 14:11:18;;;;;;;13.20;8.88;;;12.50;96.70;;;;;;5079780;28;20032;-70
2022/11/15 14:14:15;;;;;;;11.27;8.85;;;12.60;96.70;;;;;;5101548;28;20047;-72
2022/11/15 14:16:45;;;;;;;10.35;8.38;;;12.60;96.70;;;;;;5108311;28;20039;-72
2022/11/15 14:19:37;;;;;;;9.65;8.25;;;12.60;96.70;;;;;;5114129;27;20050;-72
2022/11/15 14:22:16;;;;;;;11.55;8.25;;;12.60;96.70;;;;;;5083295;28;20532;-72
2022/11/15 14:24:46;;;;;;;12.60;8.60;;;12.60;96.70;;;;;;5070329;28;20055;-72
2022/11/15 14:27:26;;;;;;;11.00;9.10;;;12.60;96.70;;;;;;5102896;28;20048;-72
2022/11/15 14:29:54;;;;;;;11.82;8.68;;;12.60;96.70;;;;;;5121212;27;20052;-72
2022/11/15 14:32:23;;;;;;;9.93;8.93;;;12.60;96.70;;;;;;5093778;27;20047;-72
2022/11/15 14:34:56;;;;;;;10.73;8.77;;;12.60;96.70;;;;;;5093372;28;20047;-72